createdAt,value
2022-12-03T00:00:36.553Z,82.65
2022-12-03T00:03:04.576Z,82.05
2022-12-03T00:05:32.388Z,82.93
2022-12-03T00:08:00.082Z,82.16
2022-12-03T00:10:28.046Z,82.02
2022-12-03T00:12:55.607Z,82.17
2022-12-03T00:15:24.226Z,82.64
2022-12-03T00:17:52.158Z,82.30
2022-12-03T00:20:23.153Z,81.76
2022-12-03T00:22:51.004Z,82.44
2022-12-03T00:25:18.959Z,82.92
2022-12-03T00:27:47.094Z,82.32
2022-12-03T00:30:14.745Z,82.24
2022-12-03T00:32:42.635Z,81.78
2022-12-03T00:35:10.434Z,81.37
2022-12-03T00:37:38.076Z,82.49
2022-12-03T00:40:07.099Z,82.48
2022-12-03T00:42:34.693Z,83.28
2022-12-03T00:45:02.359Z,83.29
2022-12-03T00:47:30.289Z,83.98
2022-12-03T00:49:57.900Z,83.20
2022-12-03T00:52:25.464Z,82.74
2022-12-03T00:54:53.790Z,83.14
2022-12-03T00:57:21.941Z,83.18
2022-12-03T00:59:49.650Z,82.65
2022-12-03T01:02:17.572Z,82.82
2022-12-03T01:04:45.384Z,82.87
2022-12-03T01:07:12.977Z,83.92
2022-12-03T01:09:41.097Z,83.50
2022-12-03T01:12:08.814Z,82.68
2022-12-03T01:14:36.470Z,83.52
2022-12-03T01:17:04.334Z,84.11
2022-12-03T01:19:32.058Z,84.19
2022-12-03T01:21:59.646Z,83.74
2022-12-03T01:24:27.917Z,83.91
2022-12-03T01:26:55.458Z,83.44
2022-12-03T01:29:23.761Z,83.96
2022-12-03T01:31:51.693Z,82.82
2022-12-03T01:34:19.338Z,83.51
2022-12-03T01:36:47.155Z,83.18
2022-12-03T01:39:15.029Z,82.51
2022-12-03T01:41:42.686Z,82.26
2022-12-03T01:44:23.565Z,82.07
2022-12-03T01:46:53.550Z,82.37
2022-12-03T01:49:26.856Z,81.54
2022-12-03T01:51:55.544Z,82.07
2022-12-03T01:54:31.398Z,82.70
2022-12-03T01:56:59.341Z,82.54
2022-12-03T01:59:35.221Z,82.70
2022-12-03T02:02:24.415Z,82.21
2022-12-03T02:04:52.961Z,83.14
2022-12-03T02:07:26.906Z,81.77
2022-12-03T02:09:56.749Z,82.55
2022-12-03T02:12:29.688Z,82.40
2022-12-03T02:14:57.599Z,82.43
2022-12-03T02:17:25.909Z,82.72
2022-12-03T02:19:54.343Z,83.38
2022-12-03T02:22:51.895Z,82.49
2022-12-03T02:25:23.627Z,82.68
2022-12-03T02:27:51.295Z,82.75
2022-12-03T02:30:21.315Z,82.54
2022-12-03T02:32:49.925Z,83.61
2022-12-03T02:35:20.525Z,83.31
2022-12-03T02:37:50.711Z,82.95
2022-12-03T02:40:21.175Z,82.65
2022-12-03T02:42:49.918Z,83.05
2022-12-03T02:45:24.448Z,83.32
2022-12-03T02:47:57.864Z,82.91
2022-12-03T02:50:33.989Z,82.54
2022-12-03T02:53:03.755Z,83.34
2022-12-03T02:55:36.759Z,83.68
2022-12-03T02:58:05.796Z,83.62
2022-12-03T03:00:34.783Z,83.40
2022-12-03T03:03:04.501Z,84.18
2022-12-03T03:05:33.036Z,84.62
2022-12-03T03:08:01.656Z,83.84
2022-12-03T03:10:29.748Z,83.71
2022-12-03T03:12:57.735Z,82.59
2022-12-03T03:15:25.588Z,82.61
2022-12-03T03:17:53.302Z,82.98
2022-12-03T03:20:21.266Z,82.91
2022-12-03T03:22:49.184Z,83.46
2022-12-03T03:25:19.141Z,83.57
2022-12-03T03:27:47.028Z,83.31
2022-12-03T03:30:15.292Z,83.70
2022-12-03T03:32:43.129Z,83.96
2022-12-03T03:35:11.172Z,83.35
2022-12-03T03:37:39.251Z,82.94
2022-12-03T03:40:07.973Z,83.25
2022-12-03T03:42:35.870Z,83.83
2022-12-03T03:45:05.928Z,82.88
2022-12-03T03:47:33.674Z,83.40
2022-12-03T03:50:01.955Z,83.37
2022-12-03T03:52:30.061Z,83.55
2022-12-03T03:54:57.900Z,82.97
2022-12-03T03:57:25.525Z,83.43
2022-12-03T03:59:53.637Z,83.55
2022-12-03T04:02:23.390Z,82.33
2022-12-03T04:04:51.808Z,82.95
2022-12-03T04:07:19.850Z,83.38
2022-12-03T04:09:47.483Z,83.11
2022-12-03T04:12:15.314Z,83.32
2022-12-03T04:14:42.870Z,83.21
2022-12-03T04:17:10.470Z,82.61
2022-12-03T04:19:38.366Z,83.79
2022-12-03T04:22:05.957Z,84.03
2022-12-03T04:24:33.572Z,84.33
2022-12-03T04:27:01.554Z,84.03
2022-12-03T04:29:29.290Z,84.97
2022-12-03T04:31:56.930Z,83.84
2022-12-03T04:34:24.991Z,85.07
2022-12-03T04:36:52.562Z,84.56
2022-12-03T04:39:20.444Z,83.86
2022-12-03T04:41:48.344Z,84.79
2022-12-03T04:44:16.040Z,85.17
2022-12-03T04:46:43.728Z,85.19
2022-12-03T04:49:13.601Z,85.66
2022-12-03T04:51:41.246Z,85.41
2022-12-03T04:54:08.892Z,85.18
2022-12-03T04:56:37.669Z,84.99
2022-12-03T04:59:10.049Z,85.35
2022-12-03T05:01:40.960Z,85.15
2022-12-03T05:04:08.619Z,84.62
2022-12-03T05:06:36.237Z,85.40
2022-12-03T05:09:04.575Z,84.92
2022-12-03T05:11:32.210Z,84.06
2022-12-03T05:13:59.783Z,85.25
2022-12-03T05:16:29.640Z,85.36
2022-12-03T05:18:57.287Z,86.03
2022-12-03T05:21:24.874Z,85.73
2022-12-03T05:23:52.849Z,85.89
2022-12-03T05:26:20.600Z,85.37
2022-12-03T05:28:48.451Z,85.38
2022-12-03T05:31:16.611Z,85.44
2022-12-03T05:33:44.698Z,85.66
2022-12-03T05:36:12.368Z,85.83
2022-12-03T05:38:40.389Z,85.53
2022-12-03T05:41:08.022Z,85.39
2022-12-03T05:43:35.707Z,84.95
2022-12-03T05:46:03.669Z,85.14
2022-12-03T05:48:31.398Z,84.76
2022-12-03T05:50:59.108Z,85.82
2022-12-03T05:53:27.014Z,85.72
2022-12-03T05:55:54.623Z,84.69
2022-12-03T05:58:22.478Z,85.38
2022-12-03T06:00:50.528Z,85.91
2022-12-03T06:03:18.700Z,85.84
2022-12-03T06:05:46.402Z,85.55
2022-12-03T06:08:14.192Z,85.84
2022-12-03T06:10:42.200Z,85.53
2022-12-03T06:13:09.853Z,85.97
2022-12-03T06:15:43.531Z,85.67
2022-12-03T06:18:12.015Z,85.51
2022-12-03T06:20:39.671Z,85.56
2022-12-03T06:23:07.321Z,86.34
2022-12-03T06:25:35.397Z,85.96
2022-12-03T06:28:03.176Z,85.98
2022-12-03T06:30:31.011Z,86.22
2022-12-03T06:32:58.977Z,86.55
2022-12-03T06:35:26.590Z,86.14
2022-12-03T06:37:54.188Z,85.77
2022-12-03T06:40:22.194Z,85.89
2022-12-03T06:42:52.697Z,85.78
2022-12-03T06:45:20.542Z,85.49
2022-12-03T06:47:48.465Z,85.84
2022-12-03T06:50:16.128Z,85.83
2022-12-03T06:52:43.757Z,85.28
2022-12-03T06:55:11.689Z,84.73
2022-12-03T06:57:39.334Z,84.07
2022-12-03T07:00:07.776Z,84.48
2022-12-03T07:02:36.036Z,84.35
2022-12-03T07:05:04.288Z,84.20
2022-12-03T07:07:32.310Z,84.76
2022-12-03T07:10:00.291Z,84.83
2022-12-03T07:12:28.149Z,84.83
2022-12-03T07:14:56.384Z,83.83
2022-12-03T07:17:24.530Z,83.35
2022-12-03T07:19:52.122Z,83.20
2022-12-03T07:22:20.577Z,83.04
2022-12-03T07:24:49.043Z,83.81
2022-12-03T07:27:16.684Z,83.25
2022-12-03T07:29:44.394Z,84.67
2022-12-03T07:32:12.706Z,84.57
2022-12-03T07:34:40.954Z,83.16
2022-12-03T07:37:08.576Z,82.92
2022-12-03T07:39:36.528Z,83.77
2022-12-03T07:42:04.438Z,83.76
2022-12-03T07:44:32.096Z,84.05
2022-12-03T07:47:00.140Z,83.60
2022-12-03T07:49:27.947Z,83.17
2022-12-03T07:51:55.860Z,83.12
2022-12-03T07:54:24.510Z,82.72
2022-12-03T07:56:55.442Z,82.55
2022-12-03T07:59:25.929Z,82.90
2022-12-03T08:01:53.627Z,81.85
2022-12-03T08:04:21.887Z,82.10
2022-12-03T08:06:49.565Z,81.63
2022-12-03T08:09:17.198Z,81.58
2022-12-03T08:11:47.788Z,80.25
2022-12-03T08:14:20.061Z,80.68
2022-12-03T08:16:48.289Z,80.95
2022-12-03T08:19:17.720Z,80.41
2022-12-03T08:21:45.660Z,79.19
2022-12-03T08:24:16.033Z,78.80
2022-12-03T08:26:49.470Z,79.69
2022-12-03T08:29:19.627Z,79.42
2022-12-03T08:31:52.646Z,79.06
2022-12-03T08:34:27.755Z,78.32
2022-12-03T08:37:01.012Z,79.04
2022-12-03T08:39:31.985Z,78.30
2022-12-03T08:42:21.180Z,77.89
2022-12-03T08:44:49.206Z,77.42
2022-12-03T08:47:20.599Z,76.98
2022-12-03T08:49:58.399Z,76.14
2022-12-03T08:52:35.677Z,76.01
2022-12-03T08:55:37.450Z,75.59
2022-12-03T08:58:43.391Z,75.59
2022-12-03T09:01:11.076Z,76.50
2022-12-03T09:03:51.694Z,75.20
2022-12-03T09:06:19.481Z,75.48
2022-12-03T09:08:47.561Z,75.44
2022-12-03T09:11:15.466Z,75.05
2022-12-03T09:13:43.134Z,73.74
2022-12-03T09:16:11.049Z,73.82
2022-12-03T09:18:38.703Z,72.93
2022-12-03T09:21:06.560Z,72.62
2022-12-03T09:23:34.462Z,73.44
2022-12-03T09:26:02.091Z,72.95
2022-12-03T09:28:29.642Z,71.52
2022-12-03T09:30:57.736Z,73.27
2022-12-03T09:33:25.269Z,73.22
2022-12-03T09:35:53.055Z,71.77
2022-12-03T09:38:21.466Z,71.01
2022-12-03T09:40:49.143Z,70.26
2022-12-03T09:43:16.876Z,71.03
2022-12-03T09:45:48.599Z,72.41
2022-12-03T09:48:18.768Z,71.94
2022-12-03T09:50:48.344Z,70.42
2022-12-03T09:53:21.160Z,71.72
2022-12-03T09:55:49.497Z,71.29
2022-12-03T09:58:18.833Z,71.75
2022-12-03T10:00:50.977Z,70.34
2022-12-03T10:03:29.769Z,70.66
2022-12-03T10:05:57.802Z,69.90
2022-12-03T10:08:30.862Z,70.43
2022-12-03T10:11:00.365Z,70.15
2022-12-03T10:13:30.457Z,69.04
2022-12-03T10:16:00.321Z,70.54
2022-12-03T10:18:32.782Z,69.24
2022-12-03T10:21:04.023Z,69.93
2022-12-03T10:23:31.920Z,69.54
2022-12-03T10:26:01.271Z,68.41
2022-12-03T10:28:32.209Z,68.51
2022-12-03T10:31:01.992Z,68.12
2022-12-03T10:33:35.254Z,67.49
2022-12-03T10:36:18.492Z,67.79
2022-12-03T10:38:46.358Z,68.99
2022-12-03T10:41:22.552Z,68.18
2022-12-03T10:43:50.232Z,68.05
2022-12-03T10:46:20.570Z,66.83
2022-12-03T10:49:11.653Z,67.05
2022-12-03T10:51:39.552Z,67.35
2022-12-03T10:54:22.005Z,66.02
2022-12-03T10:56:50.890Z,65.55
2022-12-03T10:59:23.511Z,64.99
2022-12-03T11:01:53.663Z,65.03
2022-12-03T11:04:47.744Z,63.94
2022-12-03T11:07:20.103Z,64.56
2022-12-03T11:09:52.498Z,62.43
2022-12-03T11:12:23.393Z,64.98
2022-12-03T11:14:51.253Z,65.05
2022-12-03T11:17:51.211Z,64.65
2022-12-03T11:20:25.079Z,65.74
2022-12-03T11:22:56.491Z,64.73
2022-12-03T11:25:27.496Z,63.31
2022-12-03T11:28:18.074Z,61.93
2022-12-03T11:30:48.683Z,62.27
2022-12-03T11:33:25.287Z,62.00
2022-12-03T11:36:04.992Z,60.55
2022-12-03T11:38:38.137Z,58.24
2022-12-03T11:41:22.847Z,61.17
2022-12-03T11:43:53.087Z,60.01
2022-12-03T11:46:27.066Z,60.01
2022-12-03T11:48:56.643Z,59.33
2022-12-03T11:51:26.693Z,56.78
2022-12-03T11:53:57.616Z,57.65
2022-12-03T11:56:30.176Z,57.53
2022-12-03T11:59:00.411Z,59.61
2022-12-03T12:01:39.715Z,60.21
2022-12-03T12:04:26.259Z,59.66
2022-12-03T12:06:53.909Z,60.58
2022-12-03T12:09:53.728Z,58.86
2022-12-03T12:12:33.868Z,58.68
2022-12-03T12:15:39.656Z,60.00
2022-12-03T12:18:44.887Z,58.96
2022-12-03T12:21:40.779Z,59.23
2022-12-03T12:24:27.673Z,60.21
2022-12-03T12:26:56.846Z,59.72
2022-12-03T12:29:24.471Z,60.25
2022-12-03T12:31:58.351Z,59.10
2022-12-03T12:34:26.417Z,58.95
2022-12-03T12:36:55.932Z,59.20
2022-12-03T12:39:23.835Z,60.08
2022-12-03T12:41:51.794Z,62.06
2022-12-03T12:44:20.447Z,61.80
2022-12-03T12:46:48.870Z,61.34
2022-12-03T12:49:17.073Z,61.96
2022-12-03T12:51:46.554Z,62.68
2022-12-03T12:54:16.087Z,62.45
2022-12-03T12:56:46.100Z,61.24
2022-12-03T12:59:21.500Z,62.58
2022-12-03T13:01:50.249Z,62.50
2022-12-03T13:04:21.165Z,63.57
2022-12-03T13:06:51.007Z,63.47
2022-12-03T13:09:23.985Z,62.25
2022-12-03T13:11:54.493Z,63.06
2022-12-03T13:14:24.250Z,64.08
2022-12-03T13:16:54.842Z,63.87
2022-12-03T13:19:25.158Z,65.24
2022-12-03T13:21:58.682Z,64.40
2022-12-03T13:24:37.465Z,64.91
2022-12-03T13:27:23.026Z,66.00
2022-12-03T13:29:57.278Z,65.68
2022-12-03T13:32:32.152Z,66.95
2022-12-03T13:35:05.141Z,66.04
2022-12-03T13:37:33.645Z,67.25
2022-12-03T13:40:11.850Z,67.06
2022-12-03T13:42:39.937Z,67.65
2022-12-03T13:45:16.377Z,68.80
2022-12-03T13:47:52.151Z,68.13
2022-12-03T13:50:40.316Z,68.79
2022-12-03T13:53:11.159Z,68.34
2022-12-03T13:55:43.859Z,69.07
2022-12-03T13:58:11.780Z,69.11
2022-12-03T14:00:39.541Z,68.95
2022-12-03T14:03:07.565Z,68.23
2022-12-03T14:05:35.108Z,68.44
2022-12-03T14:08:03.306Z,67.96
2022-12-03T14:10:34.402Z,69.00
2022-12-03T14:13:02.070Z,68.80
2022-12-03T14:15:31.968Z,69.63
2022-12-03T14:17:59.925Z,69.79
2022-12-03T14:20:27.677Z,69.83
2022-12-03T14:22:59.255Z,69.54
2022-12-03T14:25:27.530Z,70.14
2022-12-03T14:27:55.277Z,70.83
2022-12-03T14:30:26.465Z,71.11
2022-12-03T14:32:54.425Z,70.97
2022-12-03T14:35:22.409Z,72.58
2022-12-03T14:37:49.950Z,72.70
2022-12-03T14:40:21.478Z,72.83
2022-12-03T14:42:50.923Z,73.00
2022-12-03T14:45:18.947Z,73.18
2022-12-03T14:47:46.579Z,73.22
2022-12-03T14:50:14.604Z,72.78
2022-12-03T14:52:42.595Z,73.47
2022-12-03T14:55:10.199Z,73.85
2022-12-03T14:57:37.899Z,73.44
2022-12-03T15:00:08.055Z,74.13
2022-12-03T15:02:36.143Z,74.83
2022-12-03T15:05:04.080Z,75.04
2022-12-03T15:07:32.127Z,74.63
2022-12-03T15:09:59.876Z,75.58
2022-12-03T15:12:27.461Z,75.38
2022-12-03T15:14:55.393Z,74.58
2022-12-03T15:17:30.890Z,75.08
2022-12-03T15:19:59.706Z,75.91
2022-12-03T15:22:27.506Z,76.25
2022-12-03T15:24:55.122Z,75.53
2022-12-03T15:27:23.638Z,75.60
2022-12-03T15:29:51.876Z,75.86
2022-12-03T15:32:20.165Z,75.65
2022-12-03T15:34:48.184Z,75.78
2022-12-03T15:37:16.254Z,76.80
2022-12-03T15:39:48.511Z,77.37
2022-12-03T15:42:17.011Z,76.23
2022-12-03T15:44:46.707Z,76.23
2022-12-03T15:47:14.425Z,76.05
2022-12-03T15:49:42.433Z,77.54
2022-12-03T15:52:10.114Z,77.92
2022-12-03T15:54:37.673Z,77.50
2022-12-03T15:57:05.604Z,78.59
2022-12-03T15:59:33.609Z,78.77
2022-12-03T16:02:01.492Z,78.63
2022-12-03T16:04:29.624Z,78.57
2022-12-03T16:06:57.540Z,79.20
2022-12-03T16:09:27.625Z,78.60
2022-12-03T16:11:55.851Z,78.95
2022-12-03T16:14:23.815Z,79.20
2022-12-03T16:16:52.293Z,79.26
2022-12-03T16:19:20.375Z,79.45
2022-12-03T16:21:48.120Z,79.94
2022-12-03T16:24:15.875Z,79.74
2022-12-03T16:26:43.870Z,80.66
2022-12-03T16:29:11.518Z,79.84
2022-12-03T16:31:39.193Z,79.70
2022-12-03T16:34:07.131Z,79.30
2022-12-03T16:36:34.727Z,79.76
2022-12-03T16:39:02.339Z,79.83
2022-12-03T16:41:30.350Z,79.12
2022-12-03T16:43:58.448Z,79.58
2022-12-03T16:46:26.414Z,78.99
2022-12-03T16:48:56.014Z,79.91
2022-12-03T16:51:26.713Z,80.33
2022-12-03T16:53:55.127Z,81.02
2022-12-03T16:56:23.366Z,81.31
2022-12-03T16:58:51.136Z,81.12
2022-12-03T17:01:19.172Z,80.79
2022-12-03T17:03:46.923Z,80.96
2022-12-03T17:06:14.972Z,81.18
2022-12-03T17:08:48.761Z,81.62
2022-12-03T17:11:17.557Z,80.71
2022-12-03T17:13:45.974Z,81.62
2022-12-03T17:16:14.074Z,81.01
2022-12-03T17:18:41.788Z,80.86
2022-12-03T17:21:09.782Z,81.32
2022-12-03T17:23:37.557Z,81.26
2022-12-03T17:26:05.207Z,80.98
2022-12-03T17:28:33.142Z,81.54
2022-12-03T17:31:01.056Z,81.12
2022-12-03T17:33:28.763Z,81.74
2022-12-03T17:35:59.258Z,81.50
2022-12-03T17:38:27.041Z,80.49
2022-12-03T17:40:55.112Z,81.27
2022-12-03T17:43:23.668Z,80.76
2022-12-03T17:45:51.430Z,79.94
2022-12-03T17:48:19.135Z,80.21
2022-12-03T17:50:47.559Z,80.27
2022-12-03T17:53:15.405Z,80.57
2022-12-03T17:55:45.137Z,80.18
2022-12-03T17:58:13.640Z,80.43
2022-12-03T18:00:43.879Z,81.47
2022-12-03T18:03:11.895Z,81.75
2022-12-03T18:05:39.550Z,81.56
2022-12-03T18:08:07.758Z,82.17
2022-12-03T18:10:35.997Z,81.44
2022-12-03T18:13:03.624Z,81.35
2022-12-03T18:15:32.466Z,81.69
2022-12-03T18:18:01.612Z,81.55
2022-12-03T18:20:29.278Z,81.05
2022-12-03T18:23:00.102Z,80.80
2022-12-03T18:25:28.491Z,81.11
2022-12-03T18:27:56.764Z,81.27
2022-12-03T18:30:24.815Z,81.32
2022-12-03T18:32:52.732Z,80.63
2022-12-03T18:35:20.581Z,81.02
2022-12-03T18:37:50.162Z,81.29
2022-12-03T18:40:22.515Z,81.91
2022-12-03T18:42:50.136Z,82.37
2022-12-03T18:45:18.658Z,81.82
2022-12-03T18:47:48.445Z,82.21
2022-12-03T18:50:16.441Z,82.17
2022-12-03T18:52:45.980Z,82.19
2022-12-03T18:55:18.669Z,81.30
2022-12-03T18:57:46.656Z,81.50
2022-12-03T19:00:15.139Z,81.57
2022-12-03T19:05:32.583Z,81.44
2022-12-03T19:08:00.841Z,81.21
2022-12-03T19:10:28.599Z,81.66
2022-12-03T19:12:57.139Z,81.24
2022-12-03T19:15:24.966Z,82.10
2022-12-03T19:17:52.532Z,81.83
2022-12-03T19:20:20.758Z,82.02
2022-12-03T19:22:48.707Z,81.40
2022-12-03T19:25:17.752Z,81.03
2022-12-03T19:27:45.927Z,80.88
2022-12-03T19:30:14.970Z,81.17
2022-12-03T19:32:42.766Z,81.32
2022-12-03T19:35:10.954Z,81.59
2022-12-03T19:37:38.720Z,81.61
2022-12-03T19:40:07.322Z,81.64
2022-12-03T19:42:35.633Z,81.31
2022-12-03T19:45:03.649Z,81.50
2022-12-03T19:47:31.626Z,82.20
2022-12-03T19:50:00.314Z,82.37
2022-12-03T19:52:27.996Z,82.39
2022-12-03T19:54:55.886Z,82.79
2022-12-03T19:57:24.395Z,80.64
2022-12-03T19:59:52.487Z,81.03
2022-12-03T20:02:20.704Z,81.85
2022-12-03T20:04:49.024Z,83.28
2022-12-03T20:07:17.211Z,82.91
2022-12-03T20:09:45.329Z,82.93
2022-12-03T20:12:13.528Z,83.04
2022-12-03T20:14:41.406Z,82.82
2022-12-03T20:17:09.403Z,83.51
2022-12-03T20:19:37.597Z,83.05
2022-12-03T20:22:05.432Z,82.90
2022-12-03T20:24:33.351Z,82.83
2022-12-03T20:27:01.250Z,82.70
2022-12-03T20:29:29.657Z,83.33
2022-12-03T20:31:57.560Z,82.73
2022-12-03T20:34:25.725Z,83.30
2022-12-03T20:36:53.739Z,82.43
2022-12-03T20:39:22.026Z,82.74
2022-12-03T20:41:50.312Z,83.10
2022-12-03T20:44:18.511Z,83.15
2022-12-03T20:46:46.225Z,82.99
2022-12-03T20:49:14.338Z,83.18
2022-12-03T20:51:42.336Z,82.59
2022-12-03T20:54:10.218Z,82.39
2022-12-03T20:56:38.556Z,82.68
2022-12-03T20:59:08.812Z,82.98
2022-12-03T21:01:37.025Z,83.12
2022-12-03T21:04:06.747Z,83.41
2022-12-03T21:06:35.851Z,83.86
2022-12-03T21:09:06.878Z,82.79
2022-12-03T21:11:36.106Z,85.32
2022-12-03T21:14:04.830Z,84.32
2022-12-03T21:19:23.785Z,83.34
2022-12-03T21:21:51.647Z,83.62
2022-12-03T21:24:20.576Z,84.03
2022-12-03T21:26:48.539Z,83.56
2022-12-03T21:29:16.648Z,83.07
2022-12-03T21:31:44.288Z,83.67
2022-12-03T21:34:12.588Z,83.22
2022-12-03T21:36:40.403Z,83.28
2022-12-03T21:39:08.304Z,83.81
2022-12-03T21:41:36.283Z,83.64
2022-12-03T21:44:04.397Z,84.23
2022-12-03T21:47:09.746Z,83.46
2022-12-03T21:49:21.128Z,83.38
2022-12-03T21:51:48.991Z,83.58
2022-12-03T21:54:16.959Z,83.76
2022-12-03T21:56:44.919Z,83.84
2022-12-03T21:59:12.854Z,82.99
2022-12-03T22:01:44.157Z,83.62
2022-12-03T22:04:15.204Z,83.45
2022-12-03T22:06:43.177Z,83.10
2022-12-03T22:09:10.823Z,83.48
2022-12-03T22:11:38.788Z,83.61
2022-12-03T22:14:06.599Z,83.89
2022-12-03T22:16:34.616Z,83.73
2022-12-03T22:19:03.159Z,83.31
2022-12-03T22:21:31.267Z,81.56
2022-12-03T22:23:58.943Z,83.23
2022-12-03T22:26:26.821Z,83.86
2022-12-03T22:28:54.612Z,83.70
2022-12-03T22:31:22.618Z,83.91
2022-12-03T22:33:50.579Z,84.00
2022-12-03T22:36:21.472Z,83.93
2022-12-03T22:38:50.346Z,83.76
2022-12-03T22:41:18.893Z,84.31
2022-12-03T22:43:47.457Z,84.26
2022-12-03T22:46:15.867Z,84.37
2022-12-03T22:48:45.573Z,83.84
2022-12-03T22:51:21.478Z,83.58
2022-12-03T22:53:57.432Z,83.64
2022-12-03T22:56:25.900Z,84.13
2022-12-03T22:58:54.158Z,83.78
2022-12-03T23:01:24.888Z,83.19
2022-12-03T23:03:52.974Z,84.64
2022-12-03T23:06:21.597Z,84.53
2022-12-03T23:08:49.570Z,84.32
2022-12-03T23:11:17.268Z,83.91
2022-12-03T23:13:45.183Z,84.58
2022-12-03T23:16:15.566Z,83.89
2022-12-03T23:18:43.758Z,83.39
2022-12-03T23:21:25.422Z,84.10
2022-12-03T23:23:58.056Z,84.04
2022-12-03T23:26:26.571Z,84.25
2022-12-03T23:28:54.339Z,84.96
2022-12-03T23:31:28.006Z,84.15
2022-12-03T23:33:56.193Z,84.30
2022-12-03T23:36:25.039Z,83.92
2022-12-03T23:38:52.739Z,84.24
2022-12-03T23:41:22.926Z,84.25
2022-12-03T23:43:50.879Z,85.01
2022-12-03T23:46:20.808Z,84.33
2022-12-03T23:48:49.451Z,85.08
2022-12-03T23:51:20.709Z,84.96
2022-12-03T23:53:48.381Z,83.56
2022-12-03T23:56:19.550Z,84.41
2022-12-03T23:58:47.721Z,83.95
